sensor_id;sensor_type;location;lat;lon;timestamp;P1;durP1;ratioP1;P2;durP2;ratioP2
70026;SDS011;57506;50.092;15.804;2024-03-23T00:55:14;20.92;;;19.63;;
70026;SDS011;57506;50.092;15.804;2024-03-23T00:57:39;21.07;;;19.77;;
70026;SDS011;57506;50.092;15.804;2024-03-23T01:00:05;20.93;;;19.63;;
70026;SDS011;57506;50.092;15.804;2024-03-23T01:02:34;25.13;;;23.45;;
70026;SDS011;57506;50.092;15.804;2024-03-23T01:04:59;21.33;;;20.02;;
70026;SDS011;57506;50.092;15.804;2024-03-23T01:07:25;21.17;;;19.87;;
70026;SDS011;57506;50.092;15.804;2024-03-23T01:09:50;21.47;;;20.17;;
70026;SDS011;57506;50.092;15.804;2024-03-23T01:12:17;20.08;;;18.88;;
70026;SDS011;57506;50.092;15.804;2024-03-23T01:14:42;20.77;;;19.48;;
70026;SDS011;57506;50.092;15.804;2024-03-23T01:17:08;19.90;;;18.70;;
70026;SDS011;57506;50.092;15.804;2024-03-23T01:19:33;21.03;;;19.73;;
70026;SDS011;57506;50.092;15.804;2024-03-23T01:21:59;21.70;;;20.40;;
70026;SDS011;57506;50.092;15.804;2024-03-23T01:24:24;20.83;;;19.52;;
70026;SDS011;57506;50.092;15.804;2024-03-23T01:26:50;20.70;;;19.40;;
70026;SDS011;57506;50.092;15.804;2024-03-23T01:29:15;21.48;;;20.17;;
70026;SDS011;57506;50.092;15.804;2024-03-23T01:31:41;22.03;;;20.73;;
70026;SDS011;57506;50.092;15.804;2024-03-23T01:34:07;21.37;;;20.07;;
70026;SDS011;57506;50.092;15.804;2024-03-23T01:36:32;21.25;;;19.95;;
70026;SDS011;57506;50.092;15.804;2024-03-23T01:38:58;22.70;;;21.30;;
70026;SDS011;57506;50.092;15.804;2024-03-23T01:41:24;21.57;;;20.27;;
70026;SDS011;57506;50.092;15.804;2024-03-23T01:43:50;21.52;;;20.23;;
70026;SDS011;57506;50.092;15.804;2024-03-23T01:46:15;21.50;;;20.20;;
70026;SDS011;57506;50.092;15.804;2024-03-23T01:48:42;20.83;;;19.52;;
70026;SDS011;57506;50.092;15.804;2024-03-23T01:51:07;20.80;;;19.50;;
70026;SDS011;57506;50.092;15.804;2024-03-23T01:53:33;22.02;;;20.63;;
70026;SDS011;57506;50.092;15.804;2024-03-23T01:55:58;21.23;;;19.93;;
70026;SDS011;57506;50.092;15.804;2024-03-23T01:58:24;21.00;;;19.70;;
70026;SDS011;57506;50.092;15.804;2024-03-23T02:00:49;20.30;;;19.10;;
70026;SDS011;57506;50.092;15.804;2024-03-23T02:03:25;21.53;;;20.23;;
70026;SDS011;57506;50.092;15.804;2024-03-23T02:05:52;20.98;;;19.67;;
70026;SDS011;57506;50.092;15.804;2024-03-23T02:08:19;21.58;;;20.27;;
70026;SDS011;57506;50.092;15.804;2024-03-23T02:10:46;21.17;;;19.88;;
70026;SDS011;57506;50.092;15.804;2024-03-23T02:13:15;20.23;;;19.02;;
70026;SDS011;57506;50.092;15.804;2024-03-23T02:15:41;20.37;;;19.13;;
70026;SDS011;57506;50.092;15.804;2024-03-23T02:18:07;20.55;;;19.25;;
70026;SDS011;57506;50.092;15.804;2024-03-23T02:20:34;20.95;;;19.65;;
70026;SDS011;57506;50.092;15.804;2024-03-23T02:23:00;20.60;;;19.30;;
70026;SDS011;57506;50.092;15.804;2024-03-23T02:25:25;21.13;;;19.83;;
70026;SDS011;57506;50.092;15.804;2024-03-23T02:27:51;20.93;;;19.63;;
70026;SDS011;57506;50.092;15.804;2024-03-23T02:30:19;21.00;;;19.70;;
70026;SDS011;57506;50.092;15.804;2024-03-23T02:32:45;21.42;;;20.13;;
70026;SDS011;57506;50.092;15.804;2024-03-23T02:35:11;21.38;;;20.08;;
70026;SDS011;57506;50.092;15.804;2024-03-23T02:37:36;21.67;;;20.37;;
70026;SDS011;57506;50.092;15.804;2024-03-23T02:40:02;22.53;;;21.13;;
70026;SDS011;57506;50.092;15.804;2024-03-23T02:42:28;20.30;;;19.10;;
70026;SDS011;57506;50.092;15.804;2024-03-23T02:44:54;19.60;;;18.40;;
70026;SDS011;57506;50.092;15.804;2024-03-23T02:47:19;21.40;;;20.10;;
70026;SDS011;57506;50.092;15.804;2024-03-23T02:49:45;19.80;;;18.60;;
70026;SDS011;57506;50.092;15.804;2024-03-23T02:52:10;20.27;;;19.07;;
70026;SDS011;57506;50.092;15.804;2024-03-23T02:54:36;20.60;;;19.30;;
70026;SDS011;57506;50.092;15.804;2024-03-23T02:57:02;20.23;;;19.02;;
70026;SDS011;57506;50.092;15.804;2024-03-23T02:59:27;21.73;;;20.43;;
70026;SDS011;57506;50.092;15.804;2024-03-23T03:01:53;21.92;;;20.63;;
70026;SDS011;57506;50.092;15.804;2024-03-23T03:04:20;21.25;;;19.95;;
70026;SDS011;57506;50.092;15.804;2024-03-23T03:06:49;19.97;;;18.77;;
70026;SDS011;57506;50.092;15.804;2024-03-23T03:09:14;21.17;;;19.88;;
70026;SDS011;57506;50.092;15.804;2024-03-23T03:11:40;21.17;;;19.87;;
70026;SDS011;57506;50.092;15.804;2024-03-23T03:14:06;21.35;;;20.05;;
70026;SDS011;57506;50.092;15.804;2024-03-23T03:16:33;21.17;;;19.87;;
70026;SDS011;57506;50.092;15.804;2024-03-23T03:18:58;19.45;;;18.25;;
70026;SDS011;57506;50.092;15.804;2024-03-23T03:21:24;20.00;;;18.80;;
70026;SDS011;57506;50.092;15.804;2024-03-23T03:23:49;20.70;;;19.40;;
70026;SDS011;57506;50.092;15.804;2024-03-23T03:26:18;21.38;;;20.08;;
70026;SDS011;57506;50.092;15.804;2024-03-23T03:28:43;19.97;;;18.77;;
70026;SDS011;57506;50.092;15.804;2024-03-23T03:31:17;20.83;;;19.52;;
70026;SDS011;57506;50.092;15.804;2024-03-23T03:33:43;19.83;;;18.63;;
70026;SDS011;57506;50.092;15.804;2024-03-23T03:36:09;20.60;;;19.30;;
70026;SDS011;57506;50.092;15.804;2024-03-23T03:38:35;20.77;;;19.48;;
70026;SDS011;57506;50.092;15.804;2024-03-23T03:41:01;20.30;;;19.10;;
70026;SDS011;57506;50.092;15.804;2024-03-23T03:43:27;19.85;;;18.65;;
70026;SDS011;57506;50.092;15.804;2024-03-23T03:45:53;20.38;;;19.17;;
70026;SDS011;57506;50.092;15.804;2024-03-23T03:48:20;21.23;;;19.93;;
70026;SDS011;57506;50.092;15.804;2024-03-23T03:50:45;20.70;;;19.40;;
70026;SDS011;57506;50.092;15.804;2024-03-23T03:53:11;20.03;;;18.83;;
70026;SDS011;57506;50.092;15.804;2024-03-23T03:55:36;20.57;;;19.27;;
70026;SDS011;57506;50.092;15.804;2024-03-23T03:58:02;20.03;;;18.83;;
70026;SDS011;57506;50.092;15.804;2024-03-23T04:00:28;19.20;;;18.00;;
70026;SDS011;57506;50.092;15.804;2024-03-23T04:02:53;20.20;;;19.00;;
70026;SDS011;57506;50.092;15.804;2024-03-23T04:05:19;20.37;;;19.17;;
70026;SDS011;57506;50.092;15.804;2024-03-23T04:07:45;20.95;;;19.65;;
70026;SDS011;57506;50.092;15.804;2024-03-23T04:10:10;20.03;;;18.83;;
70026;SDS011;57506;50.092;15.804;2024-03-23T04:12:36;20.70;;;19.40;;
70026;SDS011;57506;50.092;15.804;2024-03-23T04:15:02;19.38;;;18.17;;
70026;SDS011;57506;50.092;15.804;2024-03-23T04:17:29;21.02;;;19.73;;
70026;SDS011;57506;50.092;15.804;2024-03-23T04:19:57;21.03;;;19.73;;
70026;SDS011;57506;50.092;15.804;2024-03-23T04:22:23;29.65;;;27.25;;
70026;SDS011;57506;50.092;15.804;2024-03-23T04:24:52;19.90;;;18.70;;
70026;SDS011;57506;50.092;15.804;2024-03-23T04:27:21;21.00;;;19.70;;
70026;SDS011;57506;50.092;15.804;2024-03-23T04:29:50;20.45;;;19.20;;
70026;SDS011;57506;50.092;15.804;2024-03-23T04:32:16;20.07;;;18.87;;
70026;SDS011;57506;50.092;15.804;2024-03-23T04:34:43;20.65;;;19.35;;
70026;SDS011;57506;50.092;15.804;2024-03-23T04:37:09;20.50;;;19.15;;
70026;SDS011;57506;50.092;15.804;2024-03-23T04:39:35;20.03;;;18.83;;
70026;SDS011;57506;50.092;15.804;2024-03-23T04:42:01;19.98;;;18.77;;
70026;SDS011;57506;50.092;15.804;2024-03-23T04:44:27;19.75;;;18.55;;
70026;SDS011;57506;50.092;15.804;2024-03-23T04:46:53;18.70;;;17.50;;
70026;SDS011;57506;50.092;15.804;2024-03-23T04:49:19;18.50;;;17.40;;
70026;SDS011;57506;50.092;15.804;2024-03-23T04:51:45;19.00;;;17.80;;
70026;SDS011;57506;50.092;15.804;2024-03-23T04:54:11;20.37;;;19.17;;
70026;SDS011;57506;50.092;15.804;2024-03-23T04:56:37;19.55;;;18.35;;
70026;SDS011;57506;50.092;15.804;2024-03-23T04:59:03;20.58;;;19.27;;
70026;SDS011;57506;50.092;15.804;2024-03-23T05:01:30;19.75;;;18.55;;
70026;SDS011;57506;50.092;15.804;2024-03-23T05:03:56;20.58;;;19.27;;
70026;SDS011;57506;50.092;15.804;2024-03-23T05:06:23;20.27;;;19.07;;
70026;SDS011;57506;50.092;15.804;2024-03-23T05:08:48;19.40;;;18.20;;
70026;SDS011;57506;50.092;15.804;2024-03-23T05:11:14;18.92;;;17.73;;
70026;SDS011;57506;50.092;15.804;2024-03-23T05:13:40;20.10;;;18.90;;
70026;SDS011;57506;50.092;15.804;2024-03-23T05:16:06;18.80;;;17.60;;
70026;SDS011;57506;50.092;15.804;2024-03-23T05:18:33;19.70;;;18.50;;
70026;SDS011;57506;50.092;15.804;2024-03-23T05:20:59;20.27;;;19.08;;
70026;SDS011;57506;50.092;15.804;2024-03-23T05:23:25;19.90;;;18.70;;
70026;SDS011;57506;50.092;15.804;2024-03-23T05:25:51;19.58;;;18.38;;
70026;SDS011;57506;50.092;15.804;2024-03-23T05:28:17;20.33;;;19.03;;
70026;SDS011;57506;50.092;15.804;2024-03-23T05:30:43;19.98;;;18.77;;
70026;SDS011;57506;50.092;15.804;2024-03-23T05:33:08;19.30;;;18.10;;
70026;SDS011;57506;50.092;15.804;2024-03-23T05:35:34;19.00;;;17.80;;
70026;SDS011;57506;50.092;15.804;2024-03-23T05:38:00;19.10;;;17.90;;
70026;SDS011;57506;50.092;15.804;2024-03-23T05:40:26;19.20;;;18.00;;
70026;SDS011;57506;50.092;15.804;2024-03-23T05:42:52;20.27;;;18.98;;
70026;SDS011;57506;50.092;15.804;2024-03-23T05:45:18;20.03;;;18.77;;
70026;SDS011;57506;50.092;15.804;2024-03-23T05:47:44;20.47;;;19.20;;
70026;SDS011;57506;50.092;15.804;2024-03-23T05:50:10;20.25;;;18.95;;
70026;SDS011;57506;50.092;15.804;2024-03-23T05:52:38;19.70;;;18.50;;
70026;SDS011;57506;50.092;15.804;2024-03-23T05:55:04;26.40;;;24.63;;
70026;SDS011;57506;50.092;15.804;2024-03-23T05:57:30;21.20;;;19.90;;
70026;SDS011;57506;50.092;15.804;2024-03-23T05:59:56;21.40;;;19.88;;
70026;SDS011;57506;50.092;15.804;2024-03-23T06:02:22;21.00;;;19.70;;
70026;SDS011;57506;50.092;15.804;2024-03-23T06:04:49;19.95;;;18.75;;
70026;SDS011;57506;50.092;15.804;2024-03-23T06:07:14;20.73;;;19.43;;
70026;SDS011;57506;50.092;15.804;2024-03-23T06:09:41;19.50;;;18.30;;
70026;SDS011;57506;50.092;15.804;2024-03-23T06:12:07;20.63;;;19.33;;
70026;SDS011;57506;50.092;15.804;2024-03-23T06:14:33;21.67;;;20.27;;
70026;SDS011;57506;50.092;15.804;2024-03-23T06:17:00;20.00;;;18.80;;
70026;SDS011;57506;50.092;15.804;2024-03-23T06:19:27;20.77;;;19.47;;
70026;SDS011;57506;50.092;15.804;2024-03-23T06:21:53;20.17;;;18.98;;
70026;SDS011;57506;50.092;15.804;2024-03-23T06:24:20;20.15;;;18.95;;
70026;SDS011;57506;50.092;15.804;2024-03-23T06:26:49;19.90;;;18.70;;
70026;SDS011;57506;50.092;15.804;2024-03-23T06:29:15;19.73;;;18.53;;
70026;SDS011;57506;50.092;15.804;2024-03-23T06:31:41;21.08;;;19.77;;
70026;SDS011;57506;50.092;15.804;2024-03-23T06:34:06;21.73;;;20.43;;
70026;SDS011;57506;50.092;15.804;2024-03-23T06:36:32;22.20;;;20.67;;
70026;SDS011;57506;50.092;15.804;2024-03-23T06:38:58;24.37;;;22.60;;
70026;SDS011;57506;50.092;15.804;2024-03-23T06:41:23;22.02;;;20.63;;
70026;SDS011;57506;50.092;15.804;2024-03-23T06:43:50;22.67;;;21.27;;
70026;SDS011;57506;50.092;15.804;2024-03-23T06:46:15;22.10;;;20.80;;
70026;SDS011;57506;50.092;15.804;2024-03-23T06:48:41;22.47;;;20.90;;
70026;SDS011;57506;50.092;15.804;2024-03-23T06:51:07;21.88;;;20.58;;
70026;SDS011;57506;50.092;15.804;2024-03-23T06:53:34;23.27;;;21.88;;
70026;SDS011;57506;50.092;15.804;2024-03-23T06:56:00;22.27;;;20.87;;
70026;SDS011;57506;50.092;15.804;2024-03-23T06:58:26;21.40;;;20.10;;
70026;SDS011;57506;50.092;15.804;2024-03-23T07:00:52;22.53;;;21.13;;
70026;SDS011;57506;50.092;15.804;2024-03-23T07:03:17;21.88;;;20.58;;
70026;SDS011;57506;50.092;15.804;2024-03-23T07:05:43;22.70;;;21.30;;
70026;SDS011;57506;50.092;15.804;2024-03-23T07:08:11;23.03;;;21.63;;
70026;SDS011;57506;50.092;15.804;2024-03-23T07:10:39;23.35;;;21.95;;
70026;SDS011;57506;50.092;15.804;2024-03-23T07:13:05;21.35;;;20.05;;
70026;SDS011;57506;50.092;15.804;2024-03-23T07:15:31;22.87;;;21.47;;
70026;SDS011;57506;50.092;15.804;2024-03-23T07:17:56;21.98;;;20.67;;
70026;SDS011;57506;50.092;15.804;2024-03-23T07:20:22;23.37;;;21.97;;
70026;SDS011;57506;50.092;15.804;2024-03-23T07:22:47;23.80;;;22.33;;
70026;SDS011;57506;50.092;15.804;2024-03-23T07:25:14;22.25;;;20.90;;
70026;SDS011;57506;50.092;15.804;2024-03-23T07:27:39;22.95;;;21.55;;
70026;SDS011;57506;50.092;15.804;2024-03-23T07:30:05;21.80;;;20.47;;
70026;SDS011;57506;50.092;15.804;2024-03-23T07:32:32;22.65;;;21.25;;
70026;SDS011;57506;50.092;15.804;2024-03-23T07:34:57;22.93;;;21.53;;
70026;SDS011;57506;50.092;15.804;2024-03-23T07:37:23;22.63;;;21.23;;
70026;SDS011;57506;50.092;15.804;2024-03-23T07:39:48;23.87;;;22.27;;
70026;SDS011;57506;50.092;15.804;2024-03-23T07:42:14;20.40;;;19.17;;
70026;SDS011;57506;50.092;15.804;2024-03-23T07:44:40;22.67;;;21.27;;
70026;SDS011;57506;50.092;15.804;2024-03-23T07:47:06;22.40;;;21.02;;
70026;SDS011;57506;50.092;15.804;2024-03-23T07:49:32;23.33;;;21.92;;
70026;SDS011;57506;50.092;15.804;2024-03-23T07:51:57;22.23;;;20.93;;
70026;SDS011;57506;50.092;15.804;2024-03-23T07:54:23;22.17;;;20.83;;
70026;SDS011;57506;50.092;15.804;2024-03-23T07:56:48;21.70;;;20.40;;
70026;SDS011;57506;50.092;15.804;2024-03-23T07:59:14;22.73;;;21.33;;
70026;SDS011;57506;50.092;15.804;2024-03-23T08:01:39;22.60;;;21.20;;
70026;SDS011;57506;50.092;15.804;2024-03-23T08:04:05;22.23;;;20.90;;
70026;SDS011;57506;50.092;15.804;2024-03-23T08:06:31;22.70;;;21.30;;
70026;SDS011;57506;50.092;15.804;2024-03-23T08:08:57;23.42;;;21.98;;
70026;SDS011;57506;50.092;15.804;2024-03-23T08:11:28;23.42;;;21.98;;
70026;SDS011;57506;50.092;15.804;2024-03-23T08:13:55;22.17;;;20.87;;
70026;SDS011;57506;50.092;15.804;2024-03-23T08:16:22;21.95;;;20.65;;
70026;SDS011;57506;50.092;15.804;2024-03-23T08:18:48;22.10;;;20.80;;
70026;SDS011;57506;50.092;15.804;2024-03-23T08:21:16;25.33;;;23.63;;
70026;SDS011;57506;50.092;15.804;2024-03-23T08:23:41;22.63;;;21.23;;
70026;SDS011;57506;50.092;15.804;2024-03-23T08:26:09;23.42;;;22.02;;
70026;SDS011;57506;50.092;15.804;2024-03-23T08:28:37;23.40;;;22.00;;
70026;SDS011;57506;50.092;15.804;2024-03-23T08:31:07;22.40;;;21.03;;
70026;SDS011;57506;50.092;15.804;2024-03-23T08:33:34;22.70;;;21.20;;
70026;SDS011;57506;50.092;15.804;2024-03-23T08:36:02;23.33;;;21.92;;
70026;SDS011;57506;50.092;15.804;2024-03-23T08:38:29;22.52;;;21.17;;
70026;SDS011;57506;50.092;15.804;2024-03-23T08:43:27;23.33;;;21.27;;
70026;SDS011;57506;50.092;15.804;2024-03-23T08:46:02;23.98;;;22.58;;
70026;SDS011;57506;50.092;15.804;2024-03-23T08:48:29;24.70;;;23.20;;
70026;SDS011;57506;50.092;15.804;2024-03-23T08:50:59;22.67;;;21.27;;
70026;SDS011;57506;50.092;15.804;2024-03-23T08:53:29;24.33;;;22.83;;
70026;SDS011;57506;50.092;15.804;2024-03-23T08:55:55;24.75;;;23.25;;
70026;SDS011;57506;50.092;15.804;2024-03-23T08:58:23;24.38;;;22.88;;
70026;SDS011;57506;50.092;15.804;2024-03-23T09:00:49;24.30;;;22.80;;
70026;SDS011;57506;50.092;15.804;2024-03-23T09:03:15;23.80;;;22.17;;
70026;SDS011;57506;50.092;15.804;2024-03-23T09:05:41;24.92;;;23.42;;
70026;SDS011;57506;50.092;15.804;2024-03-23T09:08:07;23.83;;;22.43;;
70026;SDS011;57506;50.092;15.804;2024-03-23T09:10:39;24.70;;;23.20;;
70026;SDS011;57506;50.092;15.804;2024-03-23T09:13:05;25.65;;;24.15;;
70026;SDS011;57506;50.092;15.804;2024-03-23T09:15:32;25.20;;;23.70;;
70026;SDS011;57506;50.092;15.804;2024-03-23T09:18:02;25.60;;;24.10;;
70026;SDS011;57506;50.092;15.804;2024-03-23T09:20:28;25.52;;;24.02;;
70026;SDS011;57506;50.092;15.804;2024-03-23T09:22:57;25.25;;;23.75;;
70026;SDS011;57506;50.092;15.804;2024-03-23T09:25:22;25.67;;;24.07;;
70026;SDS011;57506;50.092;15.804;2024-03-23T09:27:48;25.58;;;23.98;;
70026;SDS011;57506;50.092;15.804;2024-03-23T09:30:14;23.40;;;22.00;;
70026;SDS011;57506;50.092;15.804;2024-03-23T09:32:41;22.77;;;21.38;;
70026;SDS011;57506;50.092;15.804;2024-03-23T09:35:09;25.27;;;23.77;;
70026;SDS011;57506;50.092;15.804;2024-03-23T09:37:35;25.17;;;23.58;;
70026;SDS011;57506;50.092;15.804;2024-03-23T09:40:00;26.60;;;24.90;;
70026;SDS011;57506;50.092;15.804;2024-03-23T09:42:26;26.33;;;24.73;;
70026;SDS011;57506;50.092;15.804;2024-03-23T09:44:52;24.30;;;22.67;;
70026;SDS011;57506;50.092;15.804;2024-03-23T09:47:18;25.47;;;23.97;;
70026;SDS011;57506;50.092;15.804;2024-03-23T09:49:43;25.13;;;23.38;;
70026;SDS011;57506;50.092;15.804;2024-03-23T09:52:09;26.17;;;23.88;;
70026;SDS011;57506;50.092;15.804;2024-03-23T09:54:35;24.70;;;23.10;;
70026;SDS011;57506;50.092;15.804;2024-03-23T09:57:01;24.85;;;23.25;;
70026;SDS011;57506;50.092;15.804;2024-03-23T09:59:26;26.73;;;24.97;;
70026;SDS011;57506;50.092;15.804;2024-03-23T10:01:52;24.47;;;22.97;;
70026;SDS011;57506;50.092;15.804;2024-03-23T10:04:37;25.73;;;24.13;;
70026;SDS011;57506;50.092;15.804;2024-03-23T10:07:13;26.20;;;24.60;;
70026;SDS011;57506;50.092;15.804;2024-03-23T10:09:45;27.37;;;25.00;;
70026;SDS011;57506;50.092;15.804;2024-03-23T10:12:18;28.63;;;26.52;;
70026;SDS011;57506;50.092;15.804;2024-03-23T10:14:44;25.02;;;23.42;;
70026;SDS011;57506;50.092;15.804;2024-03-23T10:17:15;26.95;;;25.27;;
70026;SDS011;57506;50.092;15.804;2024-03-23T10:19:48;26.75;;;25.15;;
70026;SDS011;57506;50.092;15.804;2024-03-23T10:22:17;26.67;;;24.67;;
70026;SDS011;57506;50.092;15.804;2024-03-23T10:24:44;26.10;;;24.50;;
70026;SDS011;57506;50.092;15.804;2024-03-23T10:27:09;24.92;;;23.40;;
70026;SDS011;57506;50.092;15.804;2024-03-23T10:29:40;24.23;;;22.77;;
70026;SDS011;57506;50.092;15.804;2024-03-23T10:32:09;23.27;;;21.88;;
70026;SDS011;57506;50.092;15.804;2024-03-23T10:34:36;24.48;;;22.92;;
70026;SDS011;57506;50.092;15.804;2024-03-23T10:37:03;25.40;;;23.65;;
70026;SDS011;57506;50.092;15.804;2024-03-23T10:39:30;26.80;;;25.07;;
70026;SDS011;57506;50.092;15.804;2024-03-23T10:42:04;27.70;;;25.33;;
70026;SDS011;57506;50.092;15.804;2024-03-23T10:44:30;25.23;;;23.73;;
70026;SDS011;57506;50.092;15.804;2024-03-23T10:47:05;24.27;;;22.70;;
70026;SDS011;57506;50.092;15.804;2024-03-23T10:49:32;29.98;;;27.70;;
70026;SDS011;57506;50.092;15.804;2024-03-23T10:52:07;23.80;;;22.40;;
70026;SDS011;57506;50.092;15.804;2024-03-23T10:54:33;25.73;;;23.23;;
70026;SDS011;57506;50.092;15.804;2024-03-23T10:57:04;25.38;;;23.63;;
70026;SDS011;57506;50.092;15.804;2024-03-23T10:59:33;24.47;;;22.87;;
70026;SDS011;57506;50.092;15.804;2024-03-23T11:02:02;22.75;;;21.35;;
70026;SDS011;57506;50.092;15.804;2024-03-23T11:04:34;25.42;;;23.63;;
70026;SDS011;57506;50.092;15.804;2024-03-23T11:07:49;23.05;;;21.65;;
70026;SDS011;57506;50.092;15.804;2024-03-23T11:09:53;23.98;;;22.48;;
70026;SDS011;57506;50.092;15.804;2024-03-23T11:14:58;23.85;;;22.35;;
70026;SDS011;57506;50.092;15.804;2024-03-23T11:17:25;24.05;;;22.55;;
70026;SDS011;57506;50.092;15.804;2024-03-23T11:27:43;23.60;;;22.10;;
70026;SDS011;57506;50.092;15.804;2024-03-23T11:30:14;22.92;;;21.42;;
70026;SDS011;57506;50.092;15.804;2024-03-23T11:32:41;22.33;;;20.92;;
70026;SDS011;57506;50.092;15.804;2024-03-23T11:35:07;23.70;;;22.10;;
70026;SDS011;57506;50.092;15.804;2024-03-23T11:37:35;24.10;;;22.60;;
70026;SDS011;57506;50.092;15.804;2024-03-23T11:40:16;21.95;;;20.65;;
70026;SDS011;57506;50.092;15.804;2024-03-23T11:42:42;23.00;;;21.60;;
70026;SDS011;57506;50.092;15.804;2024-03-23T11:45:08;23.67;;;22.17;;
70026;SDS011;57506;50.092;15.804;2024-03-23T11:47:34;21.00;;;19.70;;
70026;SDS011;57506;50.092;15.804;2024-03-23T11:50:00;23.23;;;21.83;;
70026;SDS011;57506;50.092;15.804;2024-03-23T11:52:25;21.83;;;20.43;;
70026;SDS011;57506;50.092;15.804;2024-03-23T11:54:51;22.60;;;21.20;;
70026;SDS011;57506;50.092;15.804;2024-03-23T11:57:17;23.63;;;22.03;;
70026;SDS011;57506;50.092;15.804;2024-03-23T11:59:42;22.83;;;21.42;;
70026;SDS011;57506;50.092;15.804;2024-03-23T12:02:10;22.55;;;21.15;;
70026;SDS011;57506;50.092;15.804;2024-03-23T12:04:37;23.10;;;21.70;;
70026;SDS011;57506;50.092;15.804;2024-03-23T12:07:13;24.15;;;22.50;;
70026;SDS011;57506;50.092;15.804;2024-03-23T12:09:39;21.90;;;20.60;;
70026;SDS011;57506;50.092;15.804;2024-03-23T12:12:09;22.40;;;21.00;;
70026;SDS011;57506;50.092;15.804;2024-03-23T12:14:42;23.67;;;22.02;;
70026;SDS011;57506;50.092;15.804;2024-03-23T12:17:25;23.63;;;22.17;;
70026;SDS011;57506;50.092;15.804;2024-03-23T12:19:51;23.25;;;21.85;;
70026;SDS011;57506;50.092;15.804;2024-03-23T12:22:21;24.38;;;22.88;;
70026;SDS011;57506;50.092;15.804;2024-03-23T12:24:47;25.00;;;23.30;;
70026;SDS011;57506;50.092;15.804;2024-03-23T12:27:15;23.73;;;22.23;;
70026;SDS011;57506;50.092;15.804;2024-03-23T12:29:41;23.13;;;21.73;;
70026;SDS011;57506;50.092;15.804;2024-03-23T12:32:08;23.45;;;22.05;;
70026;SDS011;57506;50.092;15.804;2024-03-23T12:34:34;22.47;;;21.07;;
70026;SDS011;57506;50.092;15.804;2024-03-23T12:37:00;24.40;;;22.80;;
70026;SDS011;57506;50.092;15.804;2024-03-23T12:39:26;22.70;;;21.30;;
70026;SDS011;57506;50.092;15.804;2024-03-23T12:41:52;23.30;;;21.90;;
70026;SDS011;57506;50.092;15.804;2024-03-23T12:44:18;22.92;;;21.52;;
70026;SDS011;57506;50.092;15.804;2024-03-23T12:46:44;23.42;;;22.02;;
70026;SDS011;57506;50.092;15.804;2024-03-23T12:49:10;23.57;;;22.10;;
70026;SDS011;57506;50.092;15.804;2024-03-23T12:51:36;24.17;;;22.67;;
70026;SDS011;57506;50.092;15.804;2024-03-23T12:54:02;23.20;;;21.80;;
70026;SDS011;57506;50.092;15.804;2024-03-23T12:56:27;22.77;;;21.37;;
70026;SDS011;57506;50.092;15.804;2024-03-23T12:58:53;21.73;;;20.42;;
70026;SDS011;57506;50.092;15.804;2024-03-23T13:01:22;23.90;;;22.48;;
70026;SDS011;57506;50.092;15.804;2024-03-23T13:03:51;22.33;;;20.93;;
70026;SDS011;57506;50.092;15.804;2024-03-23T13:06:17;23.25;;;21.85;;
70026;SDS011;57506;50.092;15.804;2024-03-23T13:08:44;23.35;;;21.85;;
70026;SDS011;57506;50.092;15.804;2024-03-23T13:11:16;22.87;;;21.47;;
70026;SDS011;57506;50.092;15.804;2024-03-23T13:13:41;27.58;;;25.85;;
70026;SDS011;57506;50.092;15.804;2024-03-23T13:16:07;25.50;;;23.17;;
70026;SDS011;57506;50.092;15.804;2024-03-23T13:18:33;21.93;;;20.53;;
70026;SDS011;57506;50.092;15.804;2024-03-23T13:20:59;21.73;;;20.33;;
70026;SDS011;57506;50.092;15.804;2024-03-23T13:23:24;23.60;;;22.03;;
70026;SDS011;57506;50.092;15.804;2024-03-23T13:28:18;22.23;;;20.83;;
70026;SDS011;57506;50.092;15.804;2024-03-23T13:30:51;21.50;;;20.10;;
70026;SDS011;57506;50.092;15.804;2024-03-23T13:33:17;22.02;;;20.63;;
70026;SDS011;57506;50.092;15.804;2024-03-23T13:35:49;20.75;;;19.45;;
70026;SDS011;57506;50.092;15.804;2024-03-23T13:38:15;21.20;;;19.83;;
70026;SDS011;57506;50.092;15.804;2024-03-23T13:40:48;20.88;;;19.33;;
70026;SDS011;57506;50.092;15.804;2024-03-23T13:43:20;21.45;;;20.05;;
70026;SDS011;57506;50.092;15.804;2024-03-23T13:45:49;20.40;;;19.10;;
70026;SDS011;57506;50.092;15.804;2024-03-23T13:48:26;20.40;;;19.10;;
70026;SDS011;57506;50.092;15.804;2024-03-23T13:51:00;22.95;;;21.45;;
70026;SDS011;57506;50.092;15.804;2024-03-23T13:53:27;21.50;;;20.10;;
70026;SDS011;57506;50.092;15.804;2024-03-23T13:55:52;33.93;;;31.33;;
70026;SDS011;57506;50.092;15.804;2024-03-23T13:58:18;24.17;;;22.58;;
70026;SDS011;57506;50.092;15.804;2024-03-23T14:00:44;24.30;;;22.75;;
70026;SDS011;57506;50.092;15.804;2024-03-23T14:03:10;22.00;;;20.60;;
70026;SDS011;57506;50.092;15.804;2024-03-23T14:05:36;22.58;;;21.17;;
70026;SDS011;57506;50.092;15.804;2024-03-23T14:08:05;20.98;;;19.67;;
70026;SDS011;57506;50.092;15.804;2024-03-23T14:10:31;20.73;;;19.42;;
70026;SDS011;57506;50.092;15.804;2024-03-23T14:12:57;26.73;;;25.00;;
70026;SDS011;57506;50.092;15.804;2024-03-23T14:15:25;23.60;;;22.10;;
70026;SDS011;57506;50.092;15.804;2024-03-23T14:17:51;20.63;;;19.35;;
70026;SDS011;57506;50.092;15.804;2024-03-23T14:20:17;24.60;;;22.67;;
70026;SDS011;57506;50.092;15.804;2024-03-23T14:22:42;21.45;;;20.15;;
70026;SDS011;57506;50.092;15.804;2024-03-23T14:25:09;24.42;;;22.83;;
70026;SDS011;57506;50.092;15.804;2024-03-23T14:27:36;26.65;;;24.88;;
70026;SDS011;57506;50.092;15.804;2024-03-23T14:30:03;22.17;;;20.77;;
70026;SDS011;57506;50.092;15.804;2024-03-23T14:32:31;27.27;;;25.48;;
70026;SDS011;57506;50.092;15.804;2024-03-23T14:35:02;23.92;;;22.38;;
70026;SDS011;57506;50.092;15.804;2024-03-23T14:37:32;21.83;;;20.45;;
70026;SDS011;57506;50.092;15.804;2024-03-23T14:39:58;25.10;;;23.40;;
70026;SDS011;57506;50.092;15.804;2024-03-23T14:42:24;21.15;;;19.85;;
70026;SDS011;57506;50.092;15.804;2024-03-23T14:44:52;21.35;;;20.05;;
70026;SDS011;57506;50.092;15.804;2024-03-23T14:47:18;20.45;;;19.15;;
70026;SDS011;57506;50.092;15.804;2024-03-23T14:49:44;20.97;;;19.57;;
70026;SDS011;57506;50.092;15.804;2024-03-23T14:52:18;23.77;;;22.17;;
70026;SDS011;57506;50.092;15.804;2024-03-23T14:54:43;22.10;;;20.70;;
70026;SDS011;57506;50.092;15.804;2024-03-23T14:57:09;22.33;;;20.93;;
70026;SDS011;57506;50.092;15.804;2024-03-23T14:59:35;22.52;;;21.02;;
70026;SDS011;57506;50.092;15.804;2024-03-23T15:02:04;19.63;;;18.42;;
70026;SDS011;57506;50.092;15.804;2024-03-23T15:04:30;21.77;;;20.43;;
70026;SDS011;57506;50.092;15.804;2024-03-23T15:06:55;20.95;;;19.65;;
70026;SDS011;57506;50.092;15.804;2024-03-23T15:09:21;20.57;;;19.27;;
70026;SDS011;57506;50.092;15.804;2024-03-23T15:11:47;23.00;;;21.58;;
70026;SDS011;57506;50.092;15.804;2024-03-23T15:14:13;19.43;;;18.23;;
70026;SDS011;57506;50.092;15.804;2024-03-23T15:16:38;21.52;;;20.23;;